createdAt,value
2017-08-29T00:00:48.347Z,6.40
2017-08-29T00:03:17.530Z,9.60
2017-08-29T00:05:45.726Z,13.97
2017-08-29T00:08:13.270Z,7.50
2017-08-29T00:10:40.718Z,8.33
2017-08-29T00:13:08.245Z,6.87
2017-08-29T00:15:35.677Z,7.97
2017-08-29T00:18:03.237Z,8.90
2017-08-29T00:20:30.649Z,6.67
2017-08-29T00:22:58.204Z,6.93
2017-08-29T00:25:25.613Z,7.93
2017-08-29T00:27:53.037Z,7.07
2017-08-29T00:30:20.519Z,9.60
2017-08-29T00:32:47.953Z,11.33
2017-08-29T00:35:15.461Z,7.83
2017-08-29T00:37:42.993Z,12.63
2017-08-29T00:40:10.411Z,9.37
2017-08-29T00:42:37.912Z,9.37
2017-08-29T00:45:05.372Z,7.07
2017-08-29T00:47:32.840Z,6.10
2017-08-29T00:50:00.264Z,9.23
2017-08-29T00:52:27.690Z,10.83
2017-08-29T00:54:55.112Z,8.90
2017-08-29T00:57:23.504Z,5.30
2017-08-29T00:59:50.925Z,4.90
2017-08-29T01:02:18.482Z,8.40
2017-08-29T01:04:45.917Z,15.33
2017-08-29T01:07:14.736Z,8.23
2017-08-29T01:09:42.164Z,6.63
2017-08-29T01:12:09.650Z,10.80
2017-08-29T01:14:37.109Z,9.67
2017-08-29T01:17:05.608Z,10.33
2017-08-29T01:19:33.043Z,9.03
2017-08-29T01:22:00.465Z,5.80
2017-08-29T01:24:27.985Z,7.03
2017-08-29T01:26:55.520Z,6.87
2017-08-29T01:29:23.879Z,6.50
2017-08-29T01:31:51.329Z,12.13
2017-08-29T01:34:18.786Z,4.70
2017-08-29T01:36:46.268Z,6.37
2017-08-29T01:39:13.700Z,8.43
2017-08-29T01:41:41.156Z,8.47
2017-08-29T01:44:08.576Z,7.83
2017-08-29T01:46:36.083Z,9.53
2017-08-29T01:49:03.571Z,13.73
2017-08-29T01:51:31.008Z,10.30
2017-08-29T01:53:58.440Z,7.20
2017-08-29T01:56:25.923Z,11.40
2017-08-29T01:58:53.485Z,8.00
2017-08-29T02:01:20.911Z,6.77
2017-08-29T02:03:48.385Z,9.40
2017-08-29T02:06:15.812Z,12.50
2017-08-29T02:08:43.242Z,9.17
2017-08-29T02:11:10.756Z,6.40
2017-08-29T02:13:38.196Z,6.47
2017-08-29T02:16:05.636Z,15.33
2017-08-29T02:18:33.120Z,11.03
2017-08-29T02:21:00.567Z,10.10
2017-08-29T02:23:28.013Z,9.27
2017-08-29T02:25:55.412Z,8.13
2017-08-29T02:28:22.838Z,14.70
2017-08-29T02:30:50.261Z,8.90
2017-08-29T02:33:17.693Z,8.67
2017-08-29T02:35:45.195Z,17.73
2017-08-29T02:38:12.662Z,8.90
2017-08-29T02:40:40.124Z,8.23
2017-08-29T02:43:07.559Z,9.60
2017-08-29T02:45:34.964Z,6.93
2017-08-29T02:48:02.490Z,17.80
2017-08-29T02:50:29.908Z,7.17
2017-08-29T02:52:57.337Z,12.93
2017-08-29T02:55:24.776Z,12.53
2017-08-29T02:57:52.206Z,6.07
2017-08-29T03:00:19.682Z,9.40
2017-08-29T03:02:47.880Z,8.80
2017-08-29T03:05:15.296Z,7.50
2017-08-29T03:07:42.734Z,7.93
2017-08-29T03:10:10.192Z,10.40
2017-08-29T03:12:37.665Z,6.13
2017-08-29T03:15:05.079Z,7.40
2017-08-29T03:17:33.340Z,7.57
2017-08-29T03:20:00.764Z,9.77
2017-08-29T03:22:28.194Z,13.17
2017-08-29T03:24:55.689Z,10.53
2017-08-29T03:27:23.230Z,9.20
2017-08-29T03:29:50.657Z,9.43
2017-08-29T03:32:18.143Z,9.13
2017-08-29T03:34:45.566Z,11.43
2017-08-29T03:37:13.017Z,8.43
2017-08-29T03:39:40.533Z,10.23
2017-08-29T03:42:08.052Z,13.30
2017-08-29T03:44:35.477Z,10.30
2017-08-29T03:47:02.966Z,10.70
2017-08-29T03:49:30.438Z,11.10
2017-08-29T03:51:57.844Z,8.40
2017-08-29T03:54:25.269Z,10.97
2017-08-29T03:56:52.717Z,15.23
2017-08-29T03:59:20.249Z,9.10
2017-08-29T04:01:47.674Z,11.23
2017-08-29T04:04:15.101Z,7.73
2017-08-29T04:06:42.611Z,12.93
2017-08-29T04:09:10.048Z,17.03
2017-08-29T04:11:37.465Z,9.27
2017-08-29T04:14:05.953Z,13.20
2017-08-29T04:16:33.494Z,12.60
2017-08-29T04:19:01.015Z,11.57
2017-08-29T04:21:28.517Z,10.33
2017-08-29T04:23:56.031Z,12.83
2017-08-29T04:26:23.561Z,13.90
2017-08-29T04:28:51.024Z,10.93
2017-08-29T04:31:18.456Z,11.43
2017-08-29T04:33:45.885Z,9.30
2017-08-29T04:36:13.306Z,12.47
2017-08-29T04:38:40.820Z,11.20
2017-08-29T04:41:08.252Z,12.23
2017-08-29T04:43:35.780Z,13.00
2017-08-29T04:46:03.205Z,9.10
2017-08-29T04:48:30.663Z,11.93
2017-08-29T04:50:58.129Z,11.97
2017-08-29T04:53:25.564Z,13.33
2017-08-29T04:55:52.992Z,13.27
2017-08-29T04:58:20.521Z,12.20
2017-08-29T05:00:47.936Z,10.50
2017-08-29T05:03:16.142Z,19.90
2017-08-29T05:05:43.577Z,11.77
2017-08-29T05:08:10.999Z,11.90
2017-08-29T05:10:38.420Z,11.37
2017-08-29T05:13:05.857Z,11.60
2017-08-29T05:15:33.320Z,13.83
2017-08-29T05:18:00.780Z,15.93
2017-08-29T05:20:28.209Z,13.57
2017-08-29T05:22:55.704Z,14.63
2017-08-29T05:25:23.144Z,10.63
2017-08-29T05:27:50.608Z,13.30
2017-08-29T05:30:18.032Z,12.27
2017-08-29T05:32:52.655Z,11.90
2017-08-29T05:35:20.107Z,11.53
2017-08-29T05:37:47.706Z,11.60
2017-08-29T05:40:15.173Z,12.57
2017-08-29T05:42:43.641Z,15.73
2017-08-29T05:45:11.197Z,22.03
2017-08-29T05:47:38.632Z,17.33
2017-08-29T05:50:06.080Z,8.97
2017-08-29T05:52:33.593Z,8.50
2017-08-29T05:55:01.029Z,12.30
2017-08-29T05:57:28.456Z,12.17
2017-08-29T05:59:55.890Z,11.00
2017-08-29T06:02:23.341Z,11.60
2017-08-29T06:04:53.296Z,15.97
2017-08-29T06:07:20.724Z,10.07
2017-08-29T06:09:48.228Z,10.57
2017-08-29T06:12:15.683Z,12.23
2017-08-29T06:14:43.253Z,13.00
2017-08-29T06:17:10.685Z,11.83
2017-08-29T06:19:38.129Z,13.40
2017-08-29T06:22:06.372Z,10.83
2017-08-29T06:24:33.825Z,14.80
2017-08-29T06:27:01.353Z,11.83
2017-08-29T06:29:28.788Z,10.00
2017-08-29T06:31:56.265Z,10.57
2017-08-29T06:34:23.705Z,9.63
2017-08-29T06:36:51.598Z,11.07
2017-08-29T06:39:19.020Z,16.53
2017-08-29T06:41:46.445Z,14.10
2017-08-29T06:44:13.865Z,9.10
2017-08-29T06:46:41.293Z,14.73
2017-08-29T06:49:08.766Z,10.50
2017-08-29T06:51:36.232Z,23.13
2017-08-29T06:54:03.661Z,10.23
2017-08-29T06:56:31.110Z,9.40
2017-08-29T06:58:58.587Z,13.33
2017-08-29T07:01:26.056Z,10.40
2017-08-29T07:03:53.505Z,12.63
2017-08-29T07:06:20.924Z,8.60
2017-08-29T07:08:48.432Z,17.23
2017-08-29T07:11:15.860Z,17.80
2017-08-29T07:13:43.309Z,10.60
2017-08-29T07:16:10.729Z,7.57
2017-08-29T07:18:38.250Z,11.83
2017-08-29T07:21:05.691Z,10.10
2017-08-29T07:23:33.113Z,8.03
2017-08-29T07:26:00.625Z,9.27
2017-08-29T07:28:28.061Z,12.90
2017-08-29T07:30:55.635Z,13.07
2017-08-29T07:33:23.068Z,11.53
2017-08-29T07:35:50.484Z,10.27
2017-08-29T07:38:17.912Z,9.43
2017-08-29T07:40:45.460Z,9.03
2017-08-29T07:43:12.908Z,10.13
2017-08-29T07:45:40.330Z,14.90
2017-08-29T07:48:07.770Z,8.43
2017-08-29T07:50:37.248Z,8.73
2017-08-29T07:53:04.705Z,11.27
2017-08-29T07:55:32.236Z,12.80
2017-08-29T07:57:59.738Z,9.90
2017-08-29T08:00:27.218Z,18.00
2017-08-29T08:02:55.713Z,10.10
2017-08-29T08:05:23.146Z,6.87
2017-08-29T08:07:50.656Z,6.97
2017-08-29T08:10:18.107Z,11.33
2017-08-29T08:12:45.522Z,7.23
2017-08-29T08:15:12.947Z,15.00
2017-08-29T08:17:40.477Z,10.90
2017-08-29T08:20:07.894Z,6.10
2017-08-29T08:22:36.133Z,8.30
2017-08-29T08:25:03.613Z,12.97
2017-08-29T08:27:31.039Z,15.80
2017-08-29T08:29:58.464Z,10.40
2017-08-29T08:32:25.985Z,8.23
2017-08-29T08:34:53.425Z,9.43
2017-08-29T08:37:20.889Z,10.23
2017-08-29T08:39:48.364Z,10.80
2017-08-29T08:42:15.856Z,10.63
2017-08-29T08:44:43.269Z,9.67
2017-08-29T08:47:10.695Z,8.27
2017-08-29T08:49:38.161Z,13.30
2017-08-29T08:52:05.620Z,13.90
2017-08-29T08:54:33.178Z,9.97
2017-08-29T08:57:00.664Z,10.70
2017-08-29T08:59:28.302Z,7.63
2017-08-29T09:01:55.731Z,19.10
2017-08-29T09:04:23.218Z,11.50
2017-08-29T09:06:51.542Z,23.83
2017-08-29T09:09:19.060Z,12.13
2017-08-29T09:11:46.483Z,13.53
2017-08-29T09:14:14.031Z,11.17
2017-08-29T09:16:41.455Z,15.43
2017-08-29T09:19:08.880Z,12.27
2017-08-29T09:21:36.322Z,13.03
2017-08-29T09:24:04.516Z,12.57
2017-08-29T09:26:31.966Z,13.37
2017-08-29T09:28:59.452Z,12.73
2017-08-29T09:31:27.625Z,21.10
2017-08-29T09:33:56.132Z,11.20
2017-08-29T09:36:23.745Z,14.20
2017-08-29T09:38:51.177Z,12.67
2017-08-29T09:41:18.789Z,9.53
2017-08-29T09:43:46.206Z,17.60
2017-08-29T09:46:13.648Z,12.20
2017-08-29T09:48:41.165Z,19.00
2017-08-29T09:51:08.644Z,13.23
2017-08-29T09:53:36.149Z,17.30
2017-08-29T09:56:03.588Z,18.13
2017-08-29T09:58:31.035Z,15.63
2017-08-29T10:00:58.505Z,16.13
2017-08-29T10:03:25.972Z,19.70
2017-08-29T10:05:53.411Z,16.77
2017-08-29T10:08:20.841Z,16.70
2017-08-29T10:10:48.353Z,18.30
2017-08-29T10:13:15.809Z,17.53
2017-08-29T10:15:43.247Z,19.03
2017-08-29T10:18:10.697Z,15.20
2017-08-29T10:20:38.177Z,15.60
2017-08-29T10:23:05.612Z,13.30
2017-08-29T10:25:33.100Z,17.63
2017-08-29T10:28:00.529Z,16.40
2017-08-29T10:30:28.010Z,20.37
2017-08-29T10:32:55.445Z,16.73
2017-08-29T10:35:22.923Z,16.60
2017-08-29T10:37:50.357Z,24.20
2017-08-29T10:40:17.801Z,19.70
2017-08-29T10:42:45.218Z,16.10
2017-08-29T10:45:15.179Z,17.30
2017-08-29T10:47:43.516Z,15.33
2017-08-29T10:50:11.124Z,17.03
2017-08-29T10:52:38.660Z,15.17
2017-08-29T10:55:06.190Z,22.63
2017-08-29T10:57:33.621Z,17.70
2017-08-29T11:00:01.919Z,20.00
2017-08-29T11:02:31.937Z,18.13
2017-08-29T11:04:59.345Z,20.97
2017-08-29T11:07:26.801Z,15.97
2017-08-29T11:09:54.268Z,22.30
2017-08-29T11:12:21.748Z,17.27
2017-08-29T11:14:49.261Z,23.07
2017-08-29T11:17:16.765Z,18.57
2017-08-29T11:19:44.211Z,22.30
2017-08-29T11:22:11.812Z,21.80
2017-08-29T11:24:39.263Z,25.00
2017-08-29T11:27:06.689Z,22.07
2017-08-29T11:29:34.889Z,22.63
2017-08-29T11:32:02.308Z,20.40
2017-08-29T11:34:29.773Z,26.57
2017-08-29T11:36:57.277Z,21.27
2017-08-29T11:39:24.744Z,19.50
2017-08-29T11:41:52.172Z,18.10
2017-08-29T11:44:19.604Z,25.20
2017-08-29T11:46:47.798Z,19.87
2017-08-29T11:49:15.234Z,16.33
2017-08-29T11:51:42.669Z,17.70
2017-08-29T11:54:10.858Z,20.33
2017-08-29T11:56:38.302Z,15.90
2017-08-29T11:59:06.426Z,16.07
2017-08-29T12:01:33.946Z,19.40
2017-08-29T12:04:01.415Z,16.27
2017-08-29T12:06:28.859Z,15.43
2017-08-29T12:08:56.301Z,24.07
2017-08-29T12:11:23.706Z,20.63
2017-08-29T12:13:51.150Z,17.80
2017-08-29T12:16:19.342Z,14.40
2017-08-29T12:18:46.861Z,17.50
2017-08-29T12:21:14.306Z,12.33
2017-08-29T12:23:41.855Z,19.90
2017-08-29T12:26:09.333Z,14.60
2017-08-29T12:28:38.465Z,18.70
2017-08-29T12:31:06.057Z,12.83
2017-08-29T12:33:33.536Z,14.07
2017-08-29T12:36:00.971Z,13.37
2017-08-29T12:38:28.430Z,13.50
2017-08-29T12:40:56.315Z,13.70
2017-08-29T12:43:23.726Z,16.53
2017-08-29T12:45:51.172Z,10.93
2017-08-29T12:48:18.601Z,12.77
2017-08-29T12:50:46.021Z,10.90
2017-08-29T12:53:15.120Z,19.87
2017-08-29T12:55:42.549Z,16.13
2017-08-29T12:58:10.002Z,20.03
2017-08-29T13:00:37.471Z,14.83
2017-08-29T13:03:04.932Z,13.00
2017-08-29T13:05:32.351Z,11.00
2017-08-29T13:07:59.853Z,15.40
2017-08-29T13:10:27.316Z,18.80
2017-08-29T13:12:54.919Z,9.00
2017-08-29T13:15:22.360Z,11.30
2017-08-29T13:17:49.768Z,17.87
2017-08-29T13:20:17.264Z,11.50
2017-08-29T13:26:16.440Z,14.27
2017-08-29T13:28:43.930Z,10.67
2017-08-29T13:31:11.440Z,10.07
2017-08-29T13:33:38.889Z,9.50
2017-08-29T13:36:06.351Z,8.60
2017-08-29T13:38:33.952Z,14.03
2017-08-29T13:41:01.474Z,17.43
2017-08-29T13:43:28.961Z,8.50
2017-08-29T13:45:56.479Z,7.60
2017-08-29T13:48:24.669Z,16.43
2017-08-29T13:50:52.861Z,10.37
2017-08-29T13:53:20.294Z,12.27
2017-08-29T13:55:47.745Z,10.60
2017-08-29T13:58:17.644Z,9.90
2017-08-29T14:00:45.068Z,8.43
2017-08-29T14:03:17.573Z,12.80
2017-08-29T14:05:45.452Z,8.47
2017-08-29T14:08:13.000Z,9.13
2017-08-29T14:10:42.009Z,17.60
2017-08-29T14:13:09.550Z,11.10
2017-08-29T14:15:37.037Z,11.43
2017-08-29T14:18:04.501Z,11.83
2017-08-29T14:20:31.983Z,10.57
2017-08-29T14:22:59.400Z,14.37
2017-08-29T14:25:27.587Z,12.37
2017-08-29T14:27:55.008Z,19.73
2017-08-29T14:30:22.509Z,11.10
2017-08-29T14:32:50.685Z,13.90
2017-08-29T14:35:18.100Z,11.67
2017-08-29T14:37:45.528Z,13.40
2017-08-29T14:40:12.984Z,8.37
2017-08-29T14:42:40.524Z,8.50
2017-08-29T14:45:07.975Z,12.67
2017-08-29T14:47:47.340Z,8.80
2017-08-29T14:50:14.765Z,9.57
2017-08-29T14:52:42.247Z,15.37
2017-08-29T14:55:09.688Z,14.17
2017-08-29T14:57:37.118Z,10.23
2017-08-29T15:00:04.556Z,9.33
2017-08-29T15:02:32.774Z,14.40
2017-08-29T15:05:00.228Z,11.43
2017-08-29T15:07:27.684Z,13.00
2017-08-29T15:09:55.161Z,9.87
2017-08-29T15:12:22.596Z,12.80
2017-08-29T15:14:50.033Z,9.03
2017-08-29T15:17:17.511Z,10.73
2017-08-29T15:19:44.928Z,12.07
2017-08-29T15:22:12.376Z,9.40
2017-08-29T15:24:39.806Z,19.23
2017-08-29T15:27:07.336Z,14.00
2017-08-29T15:29:34.752Z,10.30
2017-08-29T15:32:02.248Z,14.40
2017-08-29T15:34:29.674Z,11.50
2017-08-29T15:36:57.125Z,9.50
2017-08-29T15:39:24.529Z,9.80
2017-08-29T15:41:53.939Z,10.37
2017-08-29T15:44:21.458Z,9.73
2017-08-29T15:46:48.893Z,12.33
2017-08-29T15:49:16.359Z,10.77
2017-08-29T15:51:43.836Z,10.23
2017-08-29T15:54:11.270Z,18.33
2017-08-29T15:56:38.717Z,12.00
2017-08-29T15:59:06.922Z,14.10
2017-08-29T16:01:34.365Z,16.57
2017-08-29T16:06:41.357Z,12.97
2017-08-29T16:09:08.840Z,14.60
2017-08-29T16:11:36.314Z,10.03
2017-08-29T16:14:03.856Z,19.60
2017-08-29T16:16:31.282Z,12.47
2017-08-29T16:18:58.715Z,13.43
2017-08-29T16:21:26.149Z,11.77
2017-08-29T16:23:53.677Z,15.63
2017-08-29T16:26:21.141Z,11.53
2017-08-29T16:28:48.686Z,11.80
2017-08-29T16:31:16.149Z,11.43
2017-08-29T16:33:43.628Z,13.40
2017-08-29T16:36:11.139Z,10.93
2017-08-29T16:38:38.558Z,10.93
2017-08-29T16:41:06.084Z,14.83
2017-08-29T16:43:33.521Z,13.20
2017-08-29T16:46:01.004Z,13.00
2017-08-29T16:48:28.536Z,13.57
2017-08-29T16:50:56.020Z,10.57
2017-08-29T16:53:23.448Z,10.37
2017-08-29T16:55:50.996Z,14.40
2017-08-29T16:58:18.469Z,15.90
2017-08-29T17:00:46.026Z,19.37
2017-08-29T17:03:13.489Z,18.67
2017-08-29T17:05:40.962Z,18.10
2017-08-29T17:08:08.499Z,12.33
2017-08-29T17:10:35.961Z,24.37
2017-08-29T17:13:04.444Z,16.90
2017-08-29T17:15:31.891Z,15.57
2017-08-29T17:17:59.349Z,12.90
2017-08-29T17:20:26.876Z,13.83
2017-08-29T17:22:54.339Z,13.97
2017-08-29T17:25:21.778Z,17.53
2017-08-29T17:27:49.197Z,13.27
2017-08-29T17:30:16.640Z,13.20
2017-08-29T17:32:44.087Z,12.47
2017-08-29T17:35:12.498Z,14.27
2017-08-29T17:37:40.692Z,25.13
2017-08-29T17:40:08.123Z,15.80
2017-08-29T17:42:35.561Z,16.57
2017-08-29T17:45:03.081Z,14.70
2017-08-29T17:47:30.507Z,13.57
2017-08-29T17:49:58.696Z,17.40
2017-08-29T17:52:26.206Z,18.07
2017-08-29T17:54:53.845Z,16.20
2017-08-29T17:57:21.285Z,15.73
2017-08-29T17:59:48.698Z,14.07
2017-08-29T18:02:17.939Z,16.27
2017-08-29T18:04:45.354Z,20.67
2017-08-29T18:07:13.988Z,14.17
2017-08-29T18:09:41.433Z,17.00
2017-08-29T18:12:08.909Z,19.07
2017-08-29T18:14:36.363Z,22.40
2017-08-29T18:17:03.782Z,19.80
2017-08-29T18:19:31.219Z,22.17
2017-08-29T18:21:58.735Z,28.23
2017-08-29T18:24:27.165Z,21.93
2017-08-29T18:26:54.602Z,18.20
2017-08-29T18:29:22.082Z,21.90
2017-08-29T18:31:49.536Z,24.50
2017-08-29T18:34:17.027Z,22.10
2017-08-29T18:36:44.533Z,22.53
2017-08-29T18:39:12.095Z,24.07
2017-08-29T18:41:40.544Z,28.50
2017-08-29T18:44:08.117Z,27.20
2017-08-29T18:46:36.330Z,39.70
2017-08-29T18:49:03.784Z,39.23
2017-08-29T18:51:31.264Z,48.47
2017-08-29T18:53:58.748Z,25.40
2017-08-29T18:56:26.273Z,35.93
2017-08-29T18:58:53.712Z,24.23
2017-08-29T19:01:21.153Z,24.17
2017-08-29T19:03:49.680Z,21.13
2017-08-29T19:06:17.194Z,23.07
2017-08-29T19:08:45.385Z,26.60
2017-08-29T19:11:13.681Z,33.73
2017-08-29T19:13:41.124Z,42.20
2017-08-29T19:16:08.642Z,45.93
2017-08-29T19:18:36.944Z,29.40
2017-08-29T19:21:04.393Z,43.73
2017-08-29T19:23:32.961Z,39.80
2017-08-29T19:26:00.392Z,40.03
2017-08-29T19:28:28.018Z,38.73
2017-08-29T19:30:55.469Z,37.93
2017-08-29T19:33:22.909Z,29.20
2017-08-29T19:35:50.365Z,37.33
2017-08-29T19:38:17.869Z,35.50
2017-08-29T19:40:45.291Z,26.70
2017-08-29T19:43:12.739Z,28.20
2017-08-29T19:45:40.240Z,34.83
2017-08-29T19:48:07.788Z,26.70
2017-08-29T19:50:35.224Z,33.67
2017-08-29T19:53:02.701Z,29.10
2017-08-29T19:55:30.157Z,43.40
2017-08-29T19:57:57.600Z,30.63
2017-08-29T20:00:25.090Z,38.00
2017-08-29T20:02:52.624Z,30.17
2017-08-29T20:05:20.058Z,22.43
2017-08-29T20:07:47.545Z,32.23
2017-08-29T20:10:15.000Z,22.17
2017-08-29T20:12:43.294Z,22.90
2017-08-29T20:15:10.720Z,26.17
2017-08-29T20:17:38.164Z,25.23
2017-08-29T20:20:06.388Z,30.17
2017-08-29T20:22:33.824Z,22.80
2017-08-29T20:25:01.250Z,25.97
2017-08-29T20:27:28.693Z,22.50
2017-08-29T20:29:56.112Z,33.00
2017-08-29T20:32:23.552Z,24.40
2017-08-29T20:34:50.993Z,26.10
2017-08-29T20:37:18.452Z,29.93
2017-08-29T20:39:45.891Z,22.93
2017-08-29T20:42:13.365Z,23.63
2017-08-29T20:44:40.816Z,25.63
2017-08-29T20:47:08.281Z,30.03
2017-08-29T20:49:35.732Z,25.53
2017-08-29T20:52:03.184Z,21.30
2017-08-29T20:54:30.680Z,28.13
2017-08-29T20:56:58.108Z,26.60
2017-08-29T20:59:25.553Z,34.50
2017-08-29T21:01:53.012Z,22.90
2017-08-29T21:04:20.464Z,37.77
2017-08-29T21:06:48.877Z,25.40
2017-08-29T21:09:16.320Z,28.33
2017-08-29T21:11:43.788Z,27.27
2017-08-29T21:14:11.221Z,19.60
2017-08-29T21:16:38.669Z,32.00
2017-08-29T21:19:06.090Z,24.40
2017-08-29T21:21:34.303Z,25.43
2017-08-29T21:24:01.790Z,28.20
2017-08-29T21:26:29.319Z,23.57
2017-08-29T21:28:56.740Z,23.80
2017-08-29T21:31:24.198Z,29.07
2017-08-29T21:33:51.624Z,28.03
2017-08-29T21:36:19.072Z,27.70
2017-08-29T21:38:46.515Z,29.50
2017-08-29T21:41:13.961Z,24.90
2017-08-29T21:43:41.526Z,31.97
2017-08-29T21:46:08.978Z,23.90
2017-08-29T21:48:36.416Z,26.00
2017-08-29T21:51:03.904Z,42.97
2017-08-29T21:53:32.093Z,26.13
2017-08-29T21:55:59.536Z,24.83
2017-08-29T21:58:26.999Z,23.67
2017-08-29T22:00:54.436Z,23.80
2017-08-29T22:03:21.887Z,23.10
2017-08-29T22:05:49.316Z,23.63
2017-08-29T22:08:16.748Z,23.30
2017-08-29T22:10:44.945Z,20.77
2017-08-29T22:13:12.416Z,33.83
2017-08-29T22:15:39.894Z,33.03
2017-08-29T22:18:07.309Z,27.77
2017-08-29T22:20:34.800Z,21.37
2017-08-29T22:23:02.225Z,28.13
2017-08-29T22:25:29.800Z,22.83
2017-08-29T22:27:57.289Z,25.70
2017-08-29T22:30:24.818Z,22.20
2017-08-29T22:32:52.275Z,24.63
2017-08-29T22:35:19.736Z,28.13
2017-08-29T22:37:47.165Z,26.60
2017-08-29T22:40:14.646Z,22.93
2017-08-29T22:42:42.069Z,26.73
2017-08-29T22:45:09.501Z,22.83
2017-08-29T22:47:36.936Z,23.30
2017-08-29T22:50:04.461Z,20.60
2017-08-29T22:52:31.918Z,22.60
2017-08-29T22:54:59.344Z,21.17
2017-08-29T22:57:26.836Z,22.97
2017-08-29T22:59:54.289Z,20.70
2017-08-29T23:02:21.745Z,24.67
2017-08-29T23:04:49.176Z,17.90
2017-08-29T23:07:16.653Z,22.03
2017-08-29T23:09:44.240Z,23.37
2017-08-29T23:12:11.783Z,21.83
2017-08-29T23:14:39.205Z,19.33
2017-08-29T23:17:06.637Z,24.13
2017-08-29T23:19:34.074Z,19.57
2017-08-29T23:22:01.502Z,19.77
2017-08-29T23:24:28.952Z,23.93
2017-08-29T23:26:57.261Z,22.70
2017-08-29T23:29:24.688Z,17.83
2017-08-29T23:31:52.115Z,18.80
2017-08-29T23:34:19.551Z,20.80
2017-08-29T23:36:46.984Z,16.70
2017-08-29T23:39:14.419Z,26.00
2017-08-29T23:41:41.845Z,18.70
2017-08-29T23:44:10.041Z,17.67
2017-08-29T23:46:37.472Z,18.80
2017-08-29T23:49:04.911Z,21.30
2017-08-29T23:51:33.149Z,17.83
2017-08-29T23:54:00.576Z,20.13
2017-08-29T23:56:28.001Z,18.07
2017-08-29T23:58:55.433Z,22.63
